Time;durP1;ratioP1;P1;durP2;ratioP2;P2;SDS_P1;SDS_P2;PMS_P1;PMS_P2;Temp;Humidity;BMP_temperature;BMP_pressure;BME280_temperature;BME280_humidity;BME280_pressure;Samples;Min_cycle;Max_cycle;Signal;HPM_P1;HPM_P2
2024/04/22 00:02:16;;;;;;;1.45;1.45;;;2.70;99.90;;;;;;5399684;26;20229;-83
2024/04/22 00:04:43;;;;;;;1.50;1.40;;;2.60;99.90;;;;;;5405451;26;20282;-87
2024/04/22 00:07:11;;;;;;;0.80;0.80;;;2.60;99.90;;;;;;5430844;26;20220;-89
2024/04/22 00:09:38;;;;;;;0.50;0.50;;;2.60;99.90;;;;;;5427200;26;20224;-86
2024/04/22 00:12:06;;;;;;;0.50;0.50;;;2.60;99.90;;;;;;5420228;26;20267;-88
2024/04/22 00:14:33;;;;;;;1.75;1.65;;;2.60;99.90;;;;;;5421575;26;20260;-82
2024/04/22 00:17:00;;;;;;;0.65;0.65;;;2.60;99.90;;;;;;5405831;26;20295;-82
2024/04/22 00:19:27;;;;;;;4.78;1.58;;;2.50;99.90;;;;;;5419475;26;20225;-86
2024/04/22 00:21:54;;;;;;;1.00;0.90;;;2.50;99.90;;;;;;5410589;26;20217;-86
2024/04/22 00:24:21;;;;;;;3.17;2.90;;;2.50;99.90;;;;;;5423052;26;20264;-85
2024/04/22 00:26:48;;;;;;;0.60;0.60;;;2.50;99.90;;;;;;5417026;26;20301;-84
2024/04/22 00:29:15;;;;;;;1.40;1.30;;;2.40;99.90;;;;;;5441876;26;20225;-84
2024/04/22 00:31:42;;;;;;;0.80;0.80;;;2.40;99.90;;;;;;5437924;26;20212;-85
2024/04/22 00:34:09;;;;;;;3.25;1.40;;;2.40;99.90;;;;;;5417743;26;20230;-85
2024/04/22 00:36:36;;;;;;;0.93;0.93;;;2.40;99.90;;;;;;5411409;26;20257;-83
2024/04/22 00:39:03;;;;;;;4.15;2.97;;;2.40;99.90;;;;;;5424437;26;20272;-85
2024/04/22 00:41:31;;;;;;;0.75;0.75;;;2.30;99.90;;;;;;5397888;26;20221;-83
2024/04/22 00:43:58;;;;;;;0.50;0.50;;;2.30;99.90;;;;;;5400165;26;20236;-86
2024/04/22 00:46:25;;;;;;;1.23;1.20;;;2.30;99.90;;;;;;5402385;26;20225;-84
2024/04/22 00:48:53;;;;;;;0.73;0.70;;;2.30;99.90;;;;;;5401316;26;20241;-84
2024/04/22 00:51:21;;;;;;;2.28;2.13;;;2.20;99.90;;;;;;5415203;26;20228;-86
2024/04/22 00:53:49;;;;;;;0.50;0.50;;;2.20;99.90;;;;;;5408570;26;20218;-79
2024/04/22 00:56:18;;;;;;;1.50;1.40;;;2.20;99.90;;;;;;5413734;26;20254;-86
2024/04/22 00:58:47;;;;;;;0.75;0.75;;;2.20;99.90;;;;;;5429335;26;20232;-79
2024/04/22 01:01:17;;;;;;;0.60;0.60;;;2.20;99.90;;;;;;5412086;26;20260;-82
2024/04/22 01:03:44;;;;;;;2.13;1.92;;;2.20;99.90;;;;;;5422858;26;20216;-84
2024/04/22 01:06:11;;;;;;;2.83;1.77;;;2.20;99.90;;;;;;5429137;26;20294;-84
2024/04/22 01:08:38;;;;;;;0.60;0.60;;;2.20;99.90;;;;;;5414149;26;20221;-86
2024/04/22 01:11:05;;;;;;;1.33;0.98;;;2.10;99.90;;;;;;5420159;26;20281;-83
2024/04/22 01:13:33;;;;;;;1.38;0.88;;;2.10;99.90;;;;;;5399908;26;20214;-83
2024/04/22 01:15:59;;;;;;;0.77;0.77;;;2.10;99.90;;;;;;5406761;26;20214;-84
2024/04/22 01:18:27;;;;;;;1.75;1.40;;;2.00;99.90;;;;;;5407683;26;20273;-84
2024/04/22 01:20:54;;;;;;;0.50;0.50;;;2.10;99.90;;;;;;5392731;26;20355;-82
2024/04/22 01:23:21;;;;;;;0.95;0.95;;;2.10;99.90;;;;;;5393299;26;20221;-84
2024/04/22 01:25:54;;;;;;;0.80;0.80;;;2.00;99.90;;;;;;5413108;26;20251;-79
2024/04/22 01:28:21;;;;;;;1.13;0.80;;;2.00;99.90;;;;;;5414443;26;20225;-80
2024/04/22 01:30:49;;;;;;;2.13;1.88;;;2.00;99.90;;;;;;5411593;26;20248;-82
2024/04/22 01:33:16;;;;;;;1.10;1.10;;;2.00;99.90;;;;;;5426896;26;20232;-83
2024/04/22 01:35:44;;;;;;;0.60;0.60;;;2.00;99.90;;;;;;5418520;26;20218;-79
2024/04/22 01:38:11;;;;;;;1.13;1.13;;;2.00;99.90;;;;;;5406824;26;20246;-80
2024/04/22 01:40:38;;;;;;;0.50;0.50;;;2.00;99.90;;;;;;5393463;26;20229;-81
2024/04/22 01:43:05;;;;;;;0.60;0.60;;;2.00;99.90;;;;;;5404428;26;20259;-81
2024/04/22 01:45:32;;;;;;;0.70;0.70;;;2.00;99.90;;;;;;5398321;26;20544;-80
2024/04/22 01:47:59;;;;;;;0.60;0.60;;;2.00;99.90;;;;;;5413418;26;20224;-81
2024/04/22 01:50:26;;;;;;;0.50;0.50;;;2.00;99.90;;;;;;5411796;26;20217;-83
2024/04/22 01:52:53;;;;;;;0.60;0.60;;;2.00;99.90;;;;;;5421676;26;20231;-82
2024/04/22 01:55:22;;;;;;;1.38;1.35;;;2.00;99.90;;;;;;5418816;26;20252;-86
2024/04/22 01:57:49;;;;;;;0.43;0.43;;;2.00;99.90;;;;;;5405633;26;20221;-82
2024/04/22 02:00:16;;;;;;;0.93;0.93;;;2.00;99.90;;;;;;5418551;26;20232;-81
2024/04/22 02:02:44;;;;;;;1.20;1.20;;;1.90;99.90;;;;;;5397222;26;20256;-81
2024/04/22 02:05:11;;;;;;;1.02;1.02;;;1.90;99.90;;;;;;5407290;26;20224;-81
2024/04/22 02:07:39;;;;;;;1.42;1.38;;;2.00;99.90;;;;;;5411195;26;20223;-82
2024/04/22 02:10:08;;;;;;;1.73;1.67;;;1.90;99.90;;;;;;5424538;26;20220;-86
2024/04/22 02:12:48;;;;;;;0.50;0.50;;;1.90;99.90;;;;;;5401514;26;20262;-80
2024/04/22 02:15:15;;;;;;;2.15;1.13;;;1.90;99.90;;;;;;5424088;26;20278;-83
2024/04/22 02:17:42;;;;;;;0.70;0.70;;;1.90;99.90;;;;;;5428722;26;20305;-87
2024/04/22 02:20:09;;;;;;;0.70;0.70;;;1.90;99.90;;;;;;5418989;26;20225;-80
2024/04/22 02:22:36;;;;;;;1.48;1.35;;;1.80;99.90;;;;;;5427557;26;20386;-85
2024/04/22 02:25:04;;;;;;;0.40;0.40;;;1.80;99.90;;;;;;5421733;26;20224;-84
2024/04/22 02:27:31;;;;;;;1.42;1.42;;;1.80;99.90;;;;;;5414188;26;20292;-82
2024/04/22 02:29:58;;;;;;;0.93;0.93;;;1.80;99.90;;;;;;5414059;26;20223;-80
2024/04/22 02:32:27;;;;;;;0.50;0.50;;;1.80;99.90;;;;;;5429137;26;20272;-81
2024/04/22 02:34:53;;;;;;;0.63;0.63;;;1.80;99.90;;;;;;5395023;26;20481;-84
2024/04/22 02:37:21;;;;;;;1.38;1.27;;;1.70;99.90;;;;;;5407543;26;20224;-83
2024/04/22 02:39:47;;;;;;;1.15;1.15;;;1.80;99.90;;;;;;5417612;26;20257;-81
2024/04/22 02:42:14;;;;;;;0.50;0.50;;;1.80;99.90;;;;;;5440701;26;20243;-86
2024/04/22 02:44:41;;;;;;;1.25;1.00;;;1.70;99.90;;;;;;5419252;26;20270;-84
2024/04/22 02:47:08;;;;;;;0.50;0.50;;;1.70;99.90;;;;;;5411652;26;20240;-82
2024/04/22 02:49:36;;;;;;;0.77;0.77;;;1.70;99.90;;;;;;5435942;26;20296;-85
2024/04/22 02:52:03;;;;;;;0.75;0.75;;;1.70;99.90;;;;;;5414255;26;20228;-87
2024/04/22 02:54:31;;;;;;;3.00;2.63;;;1.70;99.90;;;;;;5415054;26;20520;-81
2024/04/22 02:56:58;;;;;;;1.23;0.93;;;1.70;99.90;;;;;;5424641;26;20225;-85
2024/04/22 02:59:25;;;;;;;0.88;0.88;;;1.60;99.90;;;;;;5405995;26;20272;-82
2024/04/22 03:01:52;;;;;;;1.60;1.23;;;1.60;99.90;;;;;;5423966;26;20270;-83
2024/04/22 03:04:19;;;;;;;2.90;1.85;;;1.60;99.90;;;;;;5418253;26;20303;-84
2024/04/22 03:06:49;;;;;;;0.40;0.40;;;1.60;99.90;;;;;;5418247;26;20266;-86
2024/04/22 03:09:16;;;;;;;1.40;1.02;;;1.60;99.90;;;;;;5400509;26;20300;-85
2024/04/22 03:11:43;;;;;;;0.85;0.85;;;1.50;99.90;;;;;;5421843;26;20220;-82
2024/04/22 03:14:10;;;;;;;0.50;0.50;;;1.50;99.90;;;;;;5436547;26;20212;-87
2024/04/22 03:16:37;;;;;;;0.77;0.77;;;1.50;99.90;;;;;;5423143;26;20270;-82
2024/04/22 03:19:04;;;;;;;0.40;0.40;;;1.40;99.90;;;;;;5419859;26;20228;-80
2024/04/22 03:21:31;;;;;;;2.58;1.67;;;1.40;99.90;;;;;;5436357;26;20295;-85
2024/04/22 03:23:58;;;;;;;0.98;0.98;;;1.40;99.90;;;;;;5404818;26;20261;-78
2024/04/22 03:26:25;;;;;;;0.40;0.40;;;1.30;99.90;;;;;;5416242;26;20342;-83
2024/04/22 03:28:52;;;;;;;0.50;0.50;;;1.20;99.90;;;;;;5684433;21;20264;-85
2024/04/22 03:31:19;;;;;;;2.15;1.80;;;1.20;99.90;;;;;;5419418;26;20230;-84
2024/04/22 03:33:46;;;;;;;1.05;1.05;;;0.90;99.90;;;;;;5585631;21;21251;-86
2024/04/22 03:36:13;;;;;;;6.70;2.05;;;0.90;99.90;;;;;;5423536;26;20231;-86
2024/04/22 03:38:40;;;;;;;0.60;0.60;;;0.80;99.90;;;;;;6512889;21;20327;-82
2024/04/22 03:52:00;;;;;;;0.68;0.68;;;0.50;99.90;;;;;;5413421;26;20261;-86
2024/04/22 03:54:27;;;;;;;0.80;0.80;;;0.50;99.90;;;;;;5440700;26;20226;-85
2024/04/22 03:56:54;;;;;;;1.23;1.17;;;0.50;99.90;;;;;;5428871;26;20213;-85
2024/04/22 03:59:21;;;;;;;0.60;0.60;;;0.50;99.90;;;;;;5433343;26;20219;-87
2024/04/22 04:01:48;;;;;;;0.60;0.60;;;0.30;99.90;;;;;;5430099;26;20358;-85
2024/04/22 04:04:15;;;;;;;0.70;0.70;;;0.40;99.90;;;;;;5972398;21;20272;-84
2024/04/22 04:06:42;;;;;;;0.70;0.70;;;0.30;99.90;;;;;;5405052;26;20302;-88
2024/04/22 04:09:09;;;;;;;1.55;1.45;;;0.30;99.90;;;;;;5420214;26;20274;-85
2024/04/22 04:11:39;;;;;;;0.95;0.95;;;0.30;99.90;;;;;;5424602;26;20306;-82
2024/04/22 04:14:07;;;;;;;4.65;4.20;;;0.30;99.90;;;;;;5420163;26;20230;-88
2024/04/22 04:16:36;;;;;;;1.20;1.20;;;0.40;99.90;;;;;;5420604;26;20223;-84
2024/04/22 04:19:03;;;;;;;1.15;1.15;;;0.50;99.90;;;;;;5408523;26;20411;-88
2024/04/22 04:21:30;;;;;;;2.17;2.03;;;0.60;99.90;;;;;;5420475;26;20261;-87
2024/04/22 04:23:57;;;;;;;1.05;1.05;;;0.60;99.90;;;;;;5427593;26;20279;-83
2024/04/22 04:26:24;;;;;;;1.45;1.45;;;0.70;99.90;;;;;;5401634;26;20354;-83
2024/04/22 04:28:51;;;;;;;0.70;0.70;;;0.80;99.90;;;;;;5408611;26;20244;-84
2024/04/22 04:31:18;;;;;;;2.15;1.33;;;0.90;99.90;;;;;;5403263;26;20219;-85
2024/04/22 04:33:45;;;;;;;1.67;1.58;;;1.00;99.90;;;;;;5404888;26;20324;-84
2024/04/22 04:36:12;;;;;;;1.80;1.70;;;1.20;99.90;;;;;;5402790;26;20260;-83
2024/04/22 04:38:39;;;;;;;1.17;1.17;;;1.30;99.90;;;;;;5401160;26;20527;-85
2024/04/22 04:41:06;;;;;;;1.30;1.23;;;1.20;99.90;;;;;;5402605;26;20292;-86
2024/04/22 04:43:33;;;;;;;1.05;1.05;;;1.00;99.90;;;;;;5398355;26;20284;-82
2024/04/22 04:46:00;;;;;;;2.00;1.90;;;0.90;99.90;;;;;;5394037;26;20219;-84
2024/04/22 04:48:28;;;;;;;4.20;3.90;;;0.70;99.90;;;;;;5393213;26;20465;-82
2024/04/22 04:50:55;;;;;;;1.10;1.10;;;0.70;99.90;;;;;;5406414;26;20221;-88
2024/04/22 04:53:22;;;;;;;1.90;1.80;;;0.80;99.90;;;;;;5405251;26;20275;-88
2024/04/22 04:55:49;;;;;;;1.52;1.42;;;1.10;99.90;;;;;;5395022;26;20228;-85
2024/04/22 04:58:16;;;;;;;1.55;1.45;;;1.40;99.90;;;;;;5404908;26;20236;-84
2024/04/22 05:00:45;;;;;;;0.80;0.80;;;1.30;99.90;;;;;;5397815;26;20227;-85
2024/04/22 05:03:13;;;;;;;0.60;0.60;;;1.30;99.90;;;;;;5396337;26;20511;-84
2024/04/22 05:05:40;;;;;;;0.55;0.55;;;1.30;99.90;;;;;;5393871;26;20317;-89
2024/04/22 05:08:07;;;;;;;0.90;0.90;;;1.40;99.90;;;;;;5417282;26;20262;-87
2024/04/22 05:10:34;;;;;;;1.02;1.02;;;1.40;99.90;;;;;;5401380;26;20282;-85
2024/04/22 05:13:01;;;;;;;1.05;0.95;;;1.50;99.90;;;;;;5396906;26;20294;-85
2024/04/22 05:15:29;;;;;;;1.02;1.02;;;1.60;99.90;;;;;;5416329;26;20266;-87
2024/04/22 05:17:56;;;;;;;0.88;0.88;;;1.60;99.90;;;;;;5395719;26;20229;-80
2024/04/22 05:20:23;;;;;;;0.77;0.77;;;1.70;99.90;;;;;;5397624;26;20264;-85
2024/04/22 05:22:50;;;;;;;1.55;1.50;;;1.80;99.90;;;;;;5398534;26;20314;-88
2024/04/22 05:25:17;;;;;;;0.93;0.93;;;2.00;99.90;;;;;;5399372;26;20435;-88
2024/04/22 05:27:44;;;;;;;0.98;0.98;;;2.10;99.90;;;;;;5392875;26;20322;-88
2024/04/22 05:30:11;;;;;;;1.80;1.70;;;2.30;99.90;;;;;;5395013;26;20260;-87
2024/04/22 05:32:39;;;;;;;0.60;0.60;;;2.40;99.90;;;;;;5394082;26;20302;-87
2024/04/22 05:37:52;;;;;;;0.68;0.68;;;2.50;99.90;;;;;;5408015;26;20218;-88
2024/04/22 05:40:20;;;;;;;0.90;0.90;;;2.90;99.90;;;;;;5397168;26;20241;-88
2024/04/22 05:42:47;;;;;;;0.60;0.60;;;3.30;99.90;;;;;;5397779;26;20220;-89
2024/04/22 05:45:14;;;;;;;0.82;0.82;;;3.10;99.90;;;;;;5401190;26;20265;-86
2024/04/22 05:47:41;;;;;;;2.53;1.15;;;3.10;99.90;;;;;;5429126;26;20216;-88
2024/04/22 05:50:08;;;;;;;2.38;1.75;;;3.40;99.90;;;;;;5399092;26;20230;-84
2024/04/22 05:52:35;;;;;;;3.42;2.75;;;3.70;99.90;;;;;;5406378;26;20291;-85
2024/04/22 05:55:04;;;;;;;2.15;1.88;;;3.70;99.90;;;;;;5402543;26;20266;-84
2024/04/22 05:57:31;;;;;;;3.25;2.80;;;3.90;99.90;;;;;;5401992;26;20258;-78
2024/04/22 05:59:58;;;;;;;0.77;0.77;;;3.60;99.90;;;;;;5396686;26;20282;-89
2024/04/22 06:02:28;;;;;;;0.68;0.68;;;4.00;99.90;;;;;;5404543;26;20234;-88
2024/04/22 06:04:55;;;;;;;1.48;1.48;;;4.50;99.90;;;;;;5416079;26;20222;-83
2024/04/22 06:07:24;;;;;;;11.43;3.90;;;4.80;99.90;;;;;;5413167;26;20230;-82
2024/04/22 06:09:51;;;;;;;2.88;1.85;;;4.90;99.90;;;;;;5407444;26;20213;-84
2024/04/22 06:12:18;;;;;;;1.60;1.50;;;4.70;99.90;;;;;;5406119;26;20265;-83
2024/04/22 06:14:46;;;;;;;0.95;0.95;;;4.70;99.90;;;;;;5406960;26;20285;-82
2024/04/22 06:17:13;;;;;;;0.60;0.60;;;4.50;99.90;;;;;;5419945;26;20294;-83
2024/04/22 06:19:40;;;;;;;0.50;0.50;;;4.70;99.90;;;;;;5400825;26;20455;-82
2024/04/22 06:22:07;;;;;;;0.60;0.60;;;4.00;99.90;;;;;;5396420;26;20456;-83
2024/04/22 06:24:35;;;;;;;0.60;0.60;;;3.70;99.90;;;;;;5425366;26;20213;-87
2024/04/22 06:27:03;;;;;;;0.68;0.68;;;3.70;99.90;;;;;;5416852;26;20264;-82
2024/04/22 06:29:30;;;;;;;2.47;2.38;;;3.90;99.90;;;;;;5416613;26;20264;-83
2024/04/22 06:31:58;;;;;;;2.72;2.50;;;4.60;99.90;;;;;;5414154;26;20225;-87
2024/04/22 06:34:25;;;;;;;0.95;0.95;;;4.90;99.90;;;;;;5388422;26;20265;-85
2024/04/22 06:36:52;;;;;;;0.60;0.60;;;5.10;99.90;;;;;;5397060;26;20261;-84
2024/04/22 06:39:20;;;;;;;0.90;0.90;;;5.20;99.90;;;;;;5408982;26;20293;-80
2024/04/22 06:41:48;;;;;;;0.70;0.70;;;4.80;99.90;;;;;;5413917;26;20292;-79
2024/04/22 06:44:15;;;;;;;0.70;0.70;;;5.00;99.90;;;;;;5407274;26;20462;-85
2024/04/22 06:46:42;;;;;;;1.48;1.38;;;5.30;99.90;;;;;;5400604;26;20259;-83
2024/04/22 06:49:09;;;;;;;1.08;1.08;;;6.10;99.90;;;;;;5406256;26;20230;-84
2024/04/22 06:51:36;;;;;;;1.15;1.15;;;6.50;99.90;;;;;;5416923;26;20227;-84
2024/04/22 06:54:04;;;;;;;1.45;1.45;;;6.70;99.90;;;;;;5403129;26;20228;-86
2024/04/22 06:56:31;;;;;;;0.65;0.65;;;8.40;91.60;;;;;;5400556;26;20251;-86
2024/04/22 06:59:01;;;;;;;2.55;2.35;;;9.20;78.80;;;;;;5413328;26;20333;-85
2024/04/22 07:01:28;;;;;;;1.00;1.00;;;6.60;85.70;;;;;;5427706;26;20223;-84
2024/04/22 07:04:05;;;;;;;0.90;0.90;;;6.50;96.50;;;;;;5434957;26;20220;-81
2024/04/22 07:06:32;;;;;;;0.85;0.85;;;7.50;92.20;;;;;;5409935;26;20289;-84
2024/04/22 07:09:09;;;;;;;0.80;0.80;;;7.80;91.60;;;;;;5402624;26;20226;-84
2024/04/22 07:11:37;;;;;;;0.70;0.70;;;7.40;86.60;;;;;;5403074;26;20275;-86
2024/04/22 07:14:05;;;;;;;0.95;0.95;;;6.50;94.00;;;;;;5420273;26;20223;-84
2024/04/22 07:16:59;;;;;;;0.80;0.80;;;6.80;92.50;;;;;;5405825;26;20222;-84
2024/04/22 07:19:30;;;;;;;1.35;1.35;;;7.50;89.60;;;;;;5403553;26;20465;-85
2024/04/22 07:22:00;;;;;;;2.13;2.03;;;6.20;93.00;;;;;;5417537;26;20226;-81
2024/04/22 07:24:27;;;;;;;0.60;0.60;;;8.50;85.70;;;;;;5409240;26;20221;-81
2024/04/22 07:26:54;;;;;;;2.20;1.08;;;9.10;79.20;;;;;;5421638;26;20289;-85
2024/04/22 07:29:22;;;;;;;0.90;0.90;;;7.50;77.90;;;;;;5407661;26;20252;-87
2024/04/22 07:31:50;;;;;;;1.25;1.15;;;6.80;83.50;;;;;;5410873;26;20311;-84
2024/04/22 07:34:18;;;;;;;1.73;1.63;;;9.80;79.20;;;;;;5397138;26;20296;-84
2024/04/22 07:36:47;;;;;;;1.00;1.00;;;13.60;65.40;;;;;;5411120;26;20261;-87
2024/04/22 07:39:14;;;;;;;0.80;0.80;;;10.90;63.50;;;;;;5412796;26;20465;-83
2024/04/22 07:41:41;;;;;;;0.70;0.70;;;9.10;72.70;;;;;;5401595;26;20283;-82
2024/04/22 07:44:08;;;;;;;2.00;1.90;;;7.40;78.20;;;;;;5395996;26;20452;-84
2024/04/22 07:46:35;;;;;;;1.75;1.67;;;6.90;83.80;;;;;;5399723;26;20292;-80
2024/04/22 07:49:03;;;;;;;1.40;1.35;;;6.40;88.30;;;;;;5400716;26;20222;-84
2024/04/22 07:51:30;;;;;;;0.90;0.90;;;5.60;99.90;;;;;;5417726;26;20277;-84
2024/04/22 07:53:58;;;;;;;1.55;1.48;;;5.20;99.90;;;;;;5417303;26;20235;-82
2024/04/22 07:56:25;;;;;;;0.73;0.73;;;5.10;99.90;;;;;;5404432;26;20280;-83
2024/04/22 07:58:53;;;;;;;0.80;0.80;;;4.90;99.90;;;;;;5400921;26;20431;-83
2024/04/22 08:01:20;;;;;;;0.60;0.60;;;5.00;99.90;;;;;;5408536;26;20278;-85
2024/04/22 08:03:49;;;;;;;0.77;0.77;;;5.00;99.90;;;;;;5411058;26;20219;-84
2024/04/22 08:09:03;;;;;;;0.60;0.60;;;4.90;99.90;;;;;;5669198;21;20254;-84
2024/04/22 08:14:01;;;;;;;0.50;0.50;;;5.20;99.90;;;;;;5490063;21;20533;-82
2024/04/22 08:16:28;;;;;;;3.33;3.22;;;5.10;99.90;;;;;;5434651;26;20257;-83
2024/04/22 08:18:55;;;;;;;0.60;0.60;;;5.20;99.90;;;;;;5431777;26;20263;-86
2024/04/22 08:21:23;;;;;;;0.95;0.95;;;5.10;99.90;;;;;;5435758;26;20451;-89
2024/04/22 08:23:49;;;;;;;1.13;1.13;;;5.10;99.90;;;;;;5432325;26;20271;-82
2024/04/22 08:26:17;;;;;;;0.82;0.82;;;5.00;99.90;;;;;;5436032;26;20213;-89
2024/04/22 08:28:44;;;;;;;1.42;1.38;;;4.80;99.90;;;;;;5429968;26;20266;-87
2024/04/22 08:31:11;;;;;;;0.70;0.70;;;4.30;99.90;;;;;;5429173;26;20256;-84
2024/04/22 08:33:39;;;;;;;0.68;0.68;;;4.20;99.90;;;;;;5432279;26;20229;-84
2024/04/22 08:36:09;;;;;;;0.60;0.60;;;4.20;99.90;;;;;;5439825;26;20216;-82
2024/04/22 08:38:36;;;;;;;0.90;0.90;;;4.40;99.90;;;;;;5427086;26;20222;-80
2024/04/22 08:41:11;;;;;;;0.65;0.65;;;4.30;99.90;;;;;;5431965;26;20251;-78
2024/04/22 08:43:38;;;;;;;0.80;0.80;;;4.30;99.90;;;;;;5431594;26;20412;-82
2024/04/22 08:46:05;;;;;;;0.70;0.70;;;4.40;99.90;;;;;;5412488;26;20293;-83
2024/04/22 08:48:32;;;;;;;0.60;0.60;;;4.90;99.90;;;;;;5431329;26;20220;-84
2024/04/22 08:51:01;;;;;;;0.95;0.95;;;5.10;99.90;;;;;;5448337;26;20217;-81
2024/04/22 08:53:28;;;;;;;0.95;0.90;;;5.10;99.90;;;;;;5436770;26;20221;-84
2024/04/22 08:55:55;;;;;;;0.80;0.80;;;5.20;99.90;;;;;;5435822;26;20527;-84
2024/04/22 08:58:22;;;;;;;1.02;1.02;;;5.60;99.90;;;;;;5435215;26;20300;-84
2024/04/22 09:00:49;;;;;;;0.85;0.85;;;5.80;99.50;;;;;;5433762;26;20252;-86
2024/04/22 09:03:18;;;;;;;0.60;0.60;;;6.90;93.50;;;;;;5450778;26;20209;-83
2024/04/22 09:05:45;;;;;;;0.70;0.70;;;6.90;86.30;;;;;;5416083;26;20236;-81
2024/04/22 09:08:14;;;;;;;0.60;0.60;;;5.70;91.80;;;;;;5432199;26;20413;-82
2024/04/22 09:10:42;;;;;;;1.60;1.52;;;5.50;93.30;;;;;;5429480;26;20222;-86
2024/04/22 09:13:29;;;;;;;0.60;0.60;;;5.10;93.80;;;;;;5445002;26;20292;-82
2024/04/22 09:15:57;;;;;;;1.30;1.30;;;4.90;96.40;;;;;;5458969;26;20233;-86
2024/04/22 09:18:25;;;;;;;0.60;0.60;;;5.10;94.70;;;;;;5425595;26;20214;-80
2024/04/22 09:21:09;;;;;;;0.60;0.60;;;4.90;98.40;;;;;;5446680;26;20228;-87
2024/04/22 09:23:37;;;;;;;1.00;1.00;;;4.80;95.30;;;;;;5435951;26;20244;-82
2024/04/22 09:26:07;;;;;;;1.50;1.40;;;5.10;94.60;;;;;;5405964;26;20300;-81
2024/04/22 09:28:36;;;;;;;0.50;0.50;;;5.40;95.80;;;;;;5428533;26;20322;-88
2024/04/22 09:31:04;;;;;;;1.17;1.10;;;5.20;93.20;;;;;;5434580;26;20259;-88
2024/04/22 09:33:36;;;;;;;0.60;0.60;;;5.40;85.40;;;;;;5436692;26;20293;-90
2024/04/22 09:36:05;;;;;;;0.57;0.57;;;5.60;86.20;;;;;;5444116;26;20214;-80
2024/04/22 09:38:35;;;;;;;0.70;0.70;;;5.50;81.60;;;;;;5428797;26;20263;-88
2024/04/22 09:41:13;;;;;;;0.60;0.60;;;6.00;84.90;;;;;;5438788;26;20275;-81
2024/04/22 09:43:42;;;;;;;0.50;0.50;;;5.70;80.80;;;;;;5451302;26;20260;-86
2024/04/22 09:46:18;;;;;;;0.63;0.63;;;5.90;83.10;;;;;;5431180;26;20318;-85
2024/04/22 09:48:47;;;;;;;1.23;1.15;;;5.70;82.30;;;;;;5430596;26;20217;-86
2024/04/22 09:51:17;;;;;;;0.70;0.70;;;5.50;82.30;;;;;;5432679;26;20278;-84
2024/04/22 09:53:45;;;;;;;0.60;0.60;;;5.60;83.90;;;;;;5437401;26;20230;-86
2024/04/22 09:56:28;;;;;;;0.63;0.63;;;5.90;85.20;;;;;;5453241;26;20234;-84
2024/04/22 09:58:58;;;;;;;0.63;0.63;;;5.80;80.70;;;;;;5434688;26;20269;-83
2024/04/22 10:01:25;;;;;;;0.68;0.68;;;6.10;82.70;;;;;;5449037;26;20298;-84
2024/04/22 10:03:53;;;;;;;0.60;0.60;;;6.10;80.20;;;;;;5433598;26;20299;-84
2024/04/22 10:06:23;;;;;;;0.70;0.70;;;5.70;81.20;;;;;;5427953;26;20219;-86
2024/04/22 10:08:52;;;;;;;2.38;2.17;;;5.80;80.50;;;;;;5430879;26;20219;-81
2024/04/22 10:11:19;;;;;;;0.60;0.60;;;5.40;80.60;;;;;;5417214;26;20359;-81
2024/04/22 10:13:47;;;;;;;0.60;0.60;;;5.50;86.90;;;;;;5429972;26;20226;-81
2024/04/22 10:16:15;;;;;;;0.60;0.60;;;4.80;94.00;;;;;;5431305;26;20218;-79
2024/04/22 10:18:46;;;;;;;0.70;0.70;;;4.40;99.90;;;;;;5430660;26;20264;-83
2024/04/22 10:21:14;;;;;;;1.23;1.23;;;4.20;99.90;;;;;;5431069;26;20255;-82
2024/04/22 10:23:43;;;;;;;0.90;0.90;;;4.30;99.90;;;;;;5429892;26;20260;-85
2024/04/22 10:26:19;;;;;;;1.15;1.15;;;4.50;99.90;;;;;;5419988;26;20255;-87
2024/04/22 10:28:47;;;;;;;0.60;0.60;;;4.90;99.20;;;;;;5430128;26;20220;-81
2024/04/22 10:31:21;;;;;;;0.60;0.60;;;5.20;98.00;;;;;;5434005;26;20667;-86
2024/04/22 10:33:49;;;;;;;0.55;0.55;;;5.20;97.90;;;;;;5439388;26;20236;-80
2024/04/22 10:36:17;;;;;;;0.70;0.70;;;5.30;95.40;;;;;;5440320;26;20244;-82
2024/04/22 10:38:45;;;;;;;0.95;0.95;;;5.30;93.30;;;;;;5441184;26;20268;-85
2024/04/22 10:41:12;;;;;;;0.88;0.88;;;5.20;94.70;;;;;;5439341;26;20260;-84
2024/04/22 10:43:41;;;;;;;0.70;0.70;;;5.80;91.40;;;;;;5433060;26;20251;-82
2024/04/22 10:46:09;;;;;;;0.60;0.60;;;5.50;90.30;;;;;;5433276;26;20221;-84
2024/04/22 10:48:37;;;;;;;0.60;0.60;;;5.80;91.60;;;;;;5433072;26;20214;-82
2024/04/22 10:51:04;;;;;;;0.77;0.77;;;5.90;89.90;;;;;;5447394;26;20218;-81
2024/04/22 10:53:31;;;;;;;0.50;0.50;;;6.50;86.20;;;;;;5423424;26;20222;-85
2024/04/22 10:56:01;;;;;;;0.80;0.80;;;5.90;82.20;;;;;;5429935;26;20304;-85
2024/04/22 10:58:28;;;;;;;0.60;0.60;;;6.60;83.50;;;;;;5431244;26;20257;-82
2024/04/22 11:00:55;;;;;;;0.60;0.60;;;7.20;81.90;;;;;;5431706;26;20220;-82
2024/04/22 11:03:22;;;;;;;0.50;0.50;;;7.20;79.50;;;;;;5432123;26;20262;-85
2024/04/22 11:05:50;;;;;;;1.20;1.15;;;6.60;77.20;;;;;;5448531;26;20277;-80
2024/04/22 11:08:18;;;;;;;0.70;0.70;;;5.60;80.30;;;;;;5444851;26;20215;-84
2024/04/22 11:10:45;;;;;;;0.50;0.50;;;5.70;80.60;;;;;;5434682;26;20344;-82
2024/04/22 11:13:13;;;;;;;0.60;0.60;;;6.20;81.30;;;;;;5424137;26;20271;-84
2024/04/22 11:15:40;;;;;;;0.60;0.60;;;6.40;80.30;;;;;;5418846;26;20321;-81
2024/04/22 11:18:08;;;;;;;0.90;0.90;;;6.10;80.40;;;;;;5430640;26;20272;-80
2024/04/22 11:20:36;;;;;;;0.60;0.60;;;5.70;83.20;;;;;;5430487;26;20323;-87
2024/04/22 11:23:04;;;;;;;0.70;0.70;;;5.90;84.90;;;;;;5431247;26;20227;-88
2024/04/22 11:25:31;;;;;;;0.60;0.60;;;6.10;85.00;;;;;;5432648;26;20238;-81
2024/04/22 11:27:59;;;;;;;3.00;1.90;;;5.30;91.70;;;;;;5433069;26;20215;-82
2024/04/22 11:30:28;;;;;;;0.90;0.90;;;5.10;95.40;;;;;;5433278;26;20287;-84
2024/04/22 11:32:56;;;;;;;1.02;1.02;;;5.10;92.60;;;;;;5433941;26;20299;-82
2024/04/22 11:35:24;;;;;;;0.75;0.75;;;5.20;94.50;;;;;;5433823;26;20268;-86
2024/04/22 11:37:54;;;;;;;1.05;0.90;;;5.60;93.60;;;;;;5419146;26;20266;-81
2024/04/22 11:40:22;;;;;;;0.75;0.75;;;5.20;93.60;;;;;;5437418;26;20554;-83
2024/04/22 11:42:49;;;;;;;0.90;0.90;;;5.70;93.40;;;;;;5421339;26;20270;-82
2024/04/22 11:45:17;;;;;;;0.70;0.70;;;5.70;91.60;;;;;;5411003;26;20469;-83
2024/04/22 11:47:44;;;;;;;0.50;0.50;;;5.20;91.00;;;;;;5440093;26;20306;-84
2024/04/22 11:50:11;;;;;;;0.70;0.70;;;5.40;93.40;;;;;;5431706;26;20401;-82
2024/04/22 11:52:38;;;;;;;0.68;0.60;;;5.20;93.60;;;;;;5428734;26;20218;-84
2024/04/22 11:55:06;;;;;;;0.60;0.60;;;5.70;93.80;;;;;;5433816;26;20313;-82
2024/04/22 11:57:33;;;;;;;0.80;0.80;;;5.20;93.50;;;;;;5431946;26;20213;-87
2024/04/22 12:00:00;;;;;;;0.70;0.70;;;5.40;93.00;;;;;;5432598;26;20218;-82
2024/04/22 12:02:28;;;;;;;0.60;0.60;;;5.00;92.10;;;;;;5433268;26;20222;-79
2024/04/22 12:04:56;;;;;;;0.50;0.50;;;5.30;91.00;;;;;;5431020;26;20379;-82
2024/04/22 12:07:26;;;;;;;0.88;0.88;;;5.50;94.10;;;;;;5439209;26;20217;-79
2024/04/22 12:09:54;;;;;;;0.60;0.60;;;5.80;90.70;;;;;;5431732;26;20209;-82
2024/04/22 12:12:22;;;;;;;0.70;0.70;;;5.40;94.30;;;;;;5431632;26;20255;-82
2024/04/22 12:14:49;;;;;;;0.60;0.60;;;5.20;92.30;;;;;;5432309;26;20244;-84
2024/04/22 12:17:17;;;;;;;0.50;0.50;;;5.10;94.70;;;;;;5430976;26;20273;-81
2024/04/22 12:19:45;;;;;;;2.25;2.15;;;5.20;94.20;;;;;;5431750;26;20249;-83
2024/04/22 12:22:12;;;;;;;0.75;0.75;;;5.60;93.60;;;;;;5430845;26;20230;-82
2024/04/22 12:24:40;;;;;;;0.60;0.60;;;5.20;91.80;;;;;;5429670;26;20218;-82
2024/04/22 12:27:07;;;;;;;0.80;0.80;;;5.50;93.60;;;;;;5430198;26;20218;-86
2024/04/22 12:29:37;;;;;;;0.73;0.73;;;5.20;93.20;;;;;;5423540;26;20251;-84
2024/04/22 12:32:04;;;;;;;0.70;0.70;;;5.70;94.60;;;;;;5440209;26;20259;-88
2024/04/22 12:34:32;;;;;;;1.00;1.00;;;5.70;93.80;;;;;;5439408;26;20354;-85
2024/04/22 12:37:00;;;;;;;0.50;0.50;;;5.60;92.30;;;;;;5435045;26;20310;-88
2024/04/22 12:39:27;;;;;;;0.60;0.60;;;5.90;93.40;;;;;;5429953;26;20265;-86
2024/04/22 12:41:55;;;;;;;0.55;0.55;;;5.70;92.90;;;;;;5430849;26;20222;-84
2024/04/22 12:44:21;;;;;;;0.70;0.70;;;5.70;90.30;;;;;;5425441;26;20478;-81
2024/04/22 12:52:21;;;;;;;0.60;0.60;;;5.80;86.40;;;;;;5431171;26;20311;-85
2024/04/22 12:54:48;;;;;;;0.70;0.70;;;5.80;86.50;;;;;;5410179;26;20226;-83
2024/04/22 12:57:15;;;;;;;0.60;0.60;;;6.10;86.30;;;;;;5434028;26;20254;-86
2024/04/22 12:59:42;;;;;;;0.70;0.70;;;6.20;84.30;;;;;;5438847;26;20242;-86
2024/04/22 13:02:12;;;;;;;0.60;0.60;;;6.30;83.20;;;;;;5438859;26;20223;-83
2024/04/22 13:04:39;;;;;;;0.60;0.60;;;6.30;80.00;;;;;;5451596;26;20223;-79
2024/04/22 13:07:07;;;;;;;0.52;0.52;;;6.30;80.60;;;;;;5429940;26;20258;-81
2024/04/22 13:09:35;;;;;;;0.70;0.70;;;6.20;80.60;;;;;;5428200;26;20254;-81
2024/04/22 13:12:03;;;;;;;0.75;0.75;;;6.50;81.30;;;;;;5428558;26;20300;-81
2024/04/22 13:14:31;;;;;;;1.77;1.67;;;6.50;80.90;;;;;;5444120;26;20380;-83
2024/04/22 13:16:58;;;;;;;0.60;0.60;;;6.00;81.40;;;;;;5431460;26;20219;-83
2024/04/22 13:19:25;;;;;;;1.25;0.80;;;5.70;80.00;;;;;;5429095;26;20257;-84
2024/04/22 13:21:52;;;;;;;1.17;1.13;;;5.90;84.90;;;;;;5430535;26;20465;-82
2024/04/22 13:24:19;;;;;;;0.60;0.60;;;6.10;82.00;;;;;;5429128;26;20249;-85
2024/04/22 13:26:47;;;;;;;0.77;0.70;;;6.20;79.40;;;;;;5430140;26;20235;-81